FDX5062 KOKC-KMEM
Flight info
| Callsign | FDX5062 |
|---|---|
| Flight time | 1h 1m |
| Altitude | 35000 |
| Route | FUNNL3 PHARA LITTR HOBRK4 |
| Aircraft | B738/M-SDE2E3FGHIRWXY/LB1 |
Departure
| Time | 2026-05-07 13:34 |
|---|---|
| Airport | OKC Will Rogers World Airport (KOKC) |
Arrival
| Time | 2026-05-07 14:35 |
|---|---|
| Airport | Memphis International Airport (KMEM) |
| Time | Latitude | Longitude | Altitude | Speed | Heading |
|---|---|---|---|---|---|
| 2026-05-07 13:13 | 35.40070 | -97.59238 | 1292 ft | 0 kts | 270° |
| 2026-05-07 13:28 | 35.40070 | -97.59218 | 1293 ft | 4 kts | 275° |
| 2026-05-07 13:28 | 35.40066 | -97.59186 | 1293 ft | 4 kts | 288° |
| 2026-05-07 13:28 | 35.40054 | -97.59157 | 1292 ft | 4 kts | 318° |
| 2026-05-07 13:28 | 35.40038 | -97.59147 | 1292 ft | 1 kts | 360° |
| 2026-05-07 13:29 | 35.40034 | -97.59147 | 1292 ft | 1 kts | 360° |
| 2026-05-07 13:31 | 35.40055 | -97.59147 | 1292 ft | 8 kts | 359° |
| 2026-05-07 13:31 | 35.40127 | -97.59140 | 1291 ft | 12 kts | 32° |
| 2026-05-07 13:31 | 35.40189 | -97.59066 | 1292 ft | 13 kts | 13° |
| 2026-05-07 13:32 | 35.40290 | -97.59065 | 1290 ft | 17 kts | 359° |
| 2026-05-07 13:32 | 35.40416 | -97.59068 | 1289 ft | 18 kts | 360° |
| 2026-05-07 13:32 | 35.40498 | -97.59031 | 1291 ft | 10 kts | 69° |
| 2026-05-07 13:32 | 35.40504 | -97.58971 | 1293 ft | 7 kts | 88° |
| 2026-05-07 13:33 | 35.40494 | -97.58918 | 1293 ft | 7 kts | 126° |
| 2026-05-07 13:33 | 35.40454 | -97.58896 | 1294 ft | 6 kts | 175° |
| 2026-05-07 13:33 | 35.40409 | -97.58894 | 1294 ft | 6 kts | 178° |
| 2026-05-07 13:33 | 35.40217 | -97.58893 | 1293 ft | 69 kts | 180° |
| 2026-05-07 13:34 | 35.39455 | -97.58890 | 1291 ft | 150 kts | 180° |
| 2026-05-07 13:34 | 35.36892 | -97.58843 | 2696 ft | 197 kts | 178° |
| 2026-05-07 13:34 | 35.35545 | -97.58596 | 3602 ft | 207 kts | 157° |
| 2026-05-07 13:35 | 35.34370 | -97.57441 | 3846 ft | 232 kts | 123° |
| 2026-05-07 13:35 | 35.33846 | -97.55534 | 4290 ft | 244 kts | 96° |
| 2026-05-07 13:35 | 35.33678 | -97.53440 | 4887 ft | 249 kts | 91° |
| 2026-05-07 13:35 | 35.33870 | -97.51358 | 5511 ft | 251 kts | 76° |
| 2026-05-07 13:36 | 35.34240 | -97.49257 | 6157 ft | 255 kts | 78° |
| 2026-05-07 13:36 | 35.34563 | -97.47104 | 6815 ft | 260 kts | 79° |
| 2026-05-07 13:36 | 35.34858 | -97.44893 | 7501 ft | 265 kts | 79° |
| 2026-05-07 13:36 | 35.35129 | -97.42638 | 8173 ft | 271 kts | 80° |
| 2026-05-07 13:37 | 35.35384 | -97.40327 | 8813 ft | 276 kts | 81° |
| 2026-05-07 13:37 | 35.35626 | -97.37972 | 9469 ft | 282 kts | 81° |
| 2026-05-07 13:37 | 35.35863 | -97.35556 | 10045 ft | 290 kts | 81° |
| 2026-05-07 13:37 | 35.36100 | -97.33054 | 10347 ft | 314 kts | 81° |
| 2026-05-07 13:38 | 35.36358 | -97.30281 | 10610 ft | 339 kts | 82° |
| 2026-05-07 13:38 | 35.36623 | -97.27355 | 11214 ft | 351 kts | 82° |
| 2026-05-07 13:38 | 35.36891 | -97.24347 | 11934 ft | 359 kts | 82° |
| 2026-05-07 13:38 | 35.37163 | -97.21259 | 12548 ft | 370 kts | 82° |
| 2026-05-07 13:39 | 35.37440 | -97.18098 | 13286 ft | 375 kts | 82° |
| 2026-05-07 13:39 | 35.37717 | -97.14909 | 14086 ft | 379 kts | 83° |
| 2026-05-07 13:39 | 35.37999 | -97.11666 | 14786 ft | 386 kts | 83° |
| 2026-05-07 13:39 | 35.38283 | -97.08373 | 15480 ft | 392 kts | 83° |
| 2026-05-07 13:40 | 35.38567 | -97.05076 | 16161 ft | 397 kts | 83° |
| 2026-05-07 13:40 | 35.38858 | -97.01688 | 16829 ft | 403 kts | 83° |
| 2026-05-07 13:40 | 35.39153 | -96.98255 | 17471 ft | 408 kts | 83° |
| 2026-05-07 13:40 | 35.39451 | -96.94774 | 18130 ft | 413 kts | 83° |
| 2026-05-07 13:41 | 35.39752 | -96.91247 | 18749 ft | 419 kts | 83° |
| 2026-05-07 13:41 | 35.40049 | -96.87676 | 19371 ft | 424 kts | 83° |
| 2026-05-07 13:41 | 35.40346 | -96.84063 | 19969 ft | 429 kts | 84° |
| 2026-05-07 13:41 | 35.40646 | -96.80396 | 20519 ft | 435 kts | 84° |
| 2026-05-07 13:42 | 35.40944 | -96.76739 | 21100 ft | 439 kts | 84° |
| 2026-05-07 13:42 | 35.41248 | -96.72999 | 21656 ft | 444 kts | 84° |
| 2026-05-07 13:42 | 35.41553 | -96.69210 | 22147 ft | 450 kts | 84° |
| 2026-05-07 13:42 | 35.41861 | -96.65375 | 22669 ft | 455 kts | 84° |
| 2026-05-07 13:43 | 35.42172 | -96.61494 | 23195 ft | 460 kts | 84° |
| 2026-05-07 13:43 | 35.42484 | -96.57573 | 23678 ft | 465 kts | 84° |
| 2026-05-07 13:43 | 35.42799 | -96.53613 | 24163 ft | 469 kts | 85° |
| 2026-05-07 13:43 | 35.43117 | -96.49606 | 24598 ft | 475 kts | 85° |
| 2026-05-07 13:44 | 35.43437 | -96.45548 | 25001 ft | 481 kts | 85° |
| 2026-05-07 13:44 | 35.43755 | -96.41494 | 25403 ft | 486 kts | 85° |
| 2026-05-07 13:44 | 35.44078 | -96.37349 | 25839 ft | 491 kts | 85° |
| 2026-05-07 13:44 | 35.44403 | -96.33167 | 26235 ft | 495 kts | 86° |
| 2026-05-07 13:45 | 35.44731 | -96.28939 | 26612 ft | 500 kts | 86° |
| 2026-05-07 13:45 | 35.45061 | -96.24670 | 26988 ft | 505 kts | 86° |
| 2026-05-07 13:45 | 35.45392 | -96.20360 | 27334 ft | 510 kts | 86° |
| 2026-05-07 13:45 | 35.45725 | -96.16008 | 27684 ft | 515 kts | 86° |
| 2026-05-07 13:46 | 35.46052 | -96.11678 | 28029 ft | 519 kts | 87° |
| 2026-05-07 13:46 | 35.46193 | -96.07253 | 28338 ft | 520 kts | 96° |
| 2026-05-07 13:46 | 35.45794 | -96.02859 | 28657 ft | 517 kts | 108° |
| 2026-05-07 13:46 | 35.44968 | -95.98575 | 29020 ft | 517 kts | 110° |
| 2026-05-07 13:47 | 35.44114 | -95.94273 | 29387 ft | 520 kts | 111° |
| 2026-05-07 13:47 | 35.43259 | -95.89945 | 29637 ft | 526 kts | 111° |
| 2026-05-07 13:47 | 35.42410 | -95.85558 | 29954 ft | 529 kts | 111° |
| 2026-05-07 13:47 | 35.41574 | -95.81154 | 30289 ft | 531 kts | 110° |
| 2026-05-07 13:48 | 35.40739 | -95.76725 | 30572 ft | 535 kts | 110° |
| 2026-05-07 13:48 | 35.39904 | -95.72273 | 30859 ft | 539 kts | 110° |
| 2026-05-07 13:48 | 35.39079 | -95.67852 | 31223 ft | 540 kts | 110° |
| 2026-05-07 13:48 | 35.38244 | -95.63374 | 31654 ft | 539 kts | 110° |
| 2026-05-07 13:49 | 35.37407 | -95.58904 | 32129 ft | 537 kts | 111° |
| 2026-05-07 13:49 | 35.36572 | -95.54453 | 32563 ft | 536 kts | 111° |
| 2026-05-07 13:49 | 35.35733 | -95.50006 | 32913 ft | 536 kts | 111° |
| 2026-05-07 13:49 | 35.34889 | -95.45550 | 33230 ft | 537 kts | 111° |
| 2026-05-07 13:50 | 35.34041 | -95.41104 | 33564 ft | 537 kts | 111° |
| 2026-05-07 13:50 | 35.33191 | -95.36643 | 33913 ft | 537 kts | 112° |
| 2026-05-07 13:50 | 35.32353 | -95.32253 | 34252 ft | 537 kts | 112° |
| 2026-05-07 13:50 | 35.31503 | -95.27804 | 34551 ft | 537 kts | 112° |
| 2026-05-07 13:51 | 35.30649 | -95.23350 | 34854 ft | 537 kts | 112° |
| 2026-05-07 13:51 | 35.29793 | -95.18893 | 35003 ft | 541 kts | 112° |
| 2026-05-07 13:51 | 35.28924 | -95.14397 | 34965 ft | 545 kts | 112° |
| 2026-05-07 13:52 | 35.27188 | -95.05386 | 34960 ft | 541 kts | 112° |
| 2026-05-07 13:52 | 35.25481 | -94.96540 | 34970 ft | 537 kts | 112° |
| 2026-05-07 13:53 | 35.23748 | -94.87655 | 34998 ft | 538 kts | 112° |
| 2026-05-07 13:53 | 35.22002 | -94.78741 | 34983 ft | 539 kts | 112° |
| 2026-05-07 13:54 | 35.20253 | -94.69833 | 34993 ft | 540 kts | 112° |
| 2026-05-07 13:54 | 35.18492 | -94.60902 | 34986 ft | 540 kts | 112° |
| 2026-05-07 13:55 | 35.16737 | -94.52024 | 34998 ft | 541 kts | 112° |
| 2026-05-07 13:55 | 35.14962 | -94.43095 | 34984 ft | 541 kts | 112° |
| 2026-05-07 13:56 | 35.13178 | -94.34154 | 34987 ft | 541 kts | 112° |
| 2026-05-07 13:56 | 35.11391 | -94.25236 | 34998 ft | 541 kts | 112° |
| 2026-05-07 13:57 | 35.09609 | -94.16376 | 34978 ft | 541 kts | 112° |
| 2026-05-07 13:57 | 35.07807 | -94.07456 | 34977 ft | 542 kts | 112° |
| 2026-05-07 13:57 | 35.06905 | -94.03000 | 35139 ft | 540 kts | 112° |
| 2026-05-07 13:58 | 35.06002 | -93.98547 | 35153 ft | 539 kts | 113° |
| 2026-05-07 13:58 | 35.04194 | -93.89675 | 35166 ft | 539 kts | 112° |
| 2026-05-07 13:59 | 35.02393 | -93.80859 | 35164 ft | 540 kts | 113° |
| 2026-05-07 13:59 | 35.00564 | -93.71958 | 35169 ft | 541 kts | 113° |
| 2026-05-07 14:00 | 34.98733 | -93.63065 | 35164 ft | 541 kts | 113° |
| 2026-05-07 14:00 | 34.96894 | -93.54183 | 35158 ft | 540 kts | 113° |
| 2026-05-07 14:01 | 34.95062 | -93.45370 | 35154 ft | 540 kts | 113° |
| 2026-05-07 14:01 | 34.93213 | -93.36510 | 35151 ft | 538 kts | 113° |
| 2026-05-07 14:02 | 34.91367 | -93.27682 | 35155 ft | 537 kts | 113° |
| 2026-05-07 14:02 | 34.89518 | -93.18881 | 35152 ft | 536 kts | 113° |
| 2026-05-07 14:03 | 34.87663 | -93.10096 | 35132 ft | 535 kts | 113° |
| 2026-05-07 14:03 | 34.86745 | -93.05763 | 34779 ft | 535 kts | 114° |
| 2026-05-07 14:03 | 34.85824 | -93.01403 | 34445 ft | 529 kts | 113° |
| 2026-05-07 14:03 | 34.84908 | -92.97078 | 34055 ft | 526 kts | 114° |
| 2026-05-07 14:04 | 34.83996 | -92.92785 | 33668 ft | 522 kts | 114° |
| 2026-05-07 14:04 | 34.83090 | -92.88528 | 33292 ft | 519 kts | 114° |
| 2026-05-07 14:04 | 34.82183 | -92.84280 | 32906 ft | 517 kts | 114° |
| 2026-05-07 14:04 | 34.81279 | -92.80063 | 32510 ft | 514 kts | 114° |
| 2026-05-07 14:05 | 34.80379 | -92.75874 | 32143 ft | 510 kts | 114° |
| 2026-05-07 14:05 | 34.79483 | -92.71703 | 31751 ft | 508 kts | 114° |
| 2026-05-07 14:05 | 34.78604 | -92.67621 | 31375 ft | 505 kts | 114° |
| 2026-05-07 14:05 | 34.77717 | -92.63503 | 31004 ft | 502 kts | 114° |
| 2026-05-07 14:06 | 34.76833 | -92.59412 | 30610 ft | 499 kts | 114° |
| 2026-05-07 14:06 | 34.75951 | -92.55337 | 30248 ft | 496 kts | 113° |
| 2026-05-07 14:06 | 34.75073 | -92.51294 | 29880 ft | 493 kts | 114° |
| 2026-05-07 14:06 | 34.74201 | -92.47276 | 29502 ft | 490 kts | 114° |
| 2026-05-07 14:07 | 34.73334 | -92.43281 | 29115 ft | 487 kts | 114° |
| 2026-05-07 14:07 | 34.72470 | -92.39316 | 28727 ft | 484 kts | 114° |
| 2026-05-07 14:07 | 34.71609 | -92.35370 | 28336 ft | 481 kts | 113° |
| 2026-05-07 14:07 | 34.70752 | -92.31451 | 27949 ft | 478 kts | 113° |
| 2026-05-07 14:08 | 34.69911 | -92.27608 | 27570 ft | 476 kts | 113° |
| 2026-05-07 14:08 | 34.69062 | -92.23737 | 27191 ft | 473 kts | 113° |
| 2026-05-07 14:08 | 34.68217 | -92.19887 | 26804 ft | 470 kts | 113° |
| 2026-05-07 14:08 | 34.67420 | -92.16033 | 26456 ft | 470 kts | 109° |
| 2026-05-07 14:09 | 34.66857 | -92.12136 | 26208 ft | 466 kts | 105° |
| 2026-05-07 14:09 | 34.66419 | -92.08259 | 25949 ft | 461 kts | 103° |
| 2026-05-07 14:09 | 34.66017 | -92.04416 | 25683 ft | 456 kts | 103° |
| 2026-05-07 14:09 | 34.65609 | -92.00608 | 25343 ft | 453 kts | 104° |
| 2026-05-07 14:10 | 34.65188 | -91.96881 | 24992 ft | 450 kts | 104° |
| 2026-05-07 14:10 | 34.64743 | -91.93128 | 24626 ft | 448 kts | 104° |
| 2026-05-07 14:10 | 34.64288 | -91.89400 | 24257 ft | 446 kts | 105° |
| 2026-05-07 14:10 | 34.63826 | -91.85682 | 23879 ft | 444 kts | 104° |
| 2026-05-07 14:11 | 34.63362 | -91.81982 | 23500 ft | 442 kts | 105° |
| 2026-05-07 14:11 | 34.62899 | -91.78294 | 23123 ft | 441 kts | 104° |
| 2026-05-07 14:11 | 34.62438 | -91.74626 | 22743 ft | 439 kts | 104° |
| 2026-05-07 14:11 | 34.61978 | -91.70969 | 22372 ft | 437 kts | 104° |
| 2026-05-07 14:12 | 34.61526 | -91.67383 | 22001 ft | 435 kts | 104° |
| 2026-05-07 14:12 | 34.61068 | -91.63766 | 21628 ft | 433 kts | 104° |
| 2026-05-07 14:12 | 34.60613 | -91.60170 | 21260 ft | 430 kts | 104° |
| 2026-05-07 14:12 | 34.60159 | -91.56587 | 20886 ft | 428 kts | 104° |
| 2026-05-07 14:13 | 34.59707 | -91.53029 | 20512 ft | 423 kts | 104° |
| 2026-05-07 14:13 | 34.59262 | -91.49529 | 20123 ft | 416 kts | 104° |
| 2026-05-07 14:13 | 34.58823 | -91.46086 | 19769 ft | 409 kts | 104° |
| 2026-05-07 14:13 | 34.58391 | -91.42705 | 19409 ft | 402 kts | 104° |
| 2026-05-07 14:14 | 34.57965 | -91.39385 | 19053 ft | 395 kts | 104° |
| 2026-05-07 14:14 | 34.57543 | -91.36116 | 18708 ft | 389 kts | 104° |
| 2026-05-07 14:14 | 34.57134 | -91.32942 | 18438 ft | 381 kts | 104° |
| 2026-05-07 14:14 | 34.56733 | -91.29824 | 18246 ft | 372 kts | 105° |
| 2026-05-07 14:15 | 34.56329 | -91.26717 | 17951 ft | 373 kts | 104° |
| 2026-05-07 14:15 | 34.55920 | -91.23598 | 17633 ft | 377 kts | 104° |
| 2026-05-07 14:15 | 34.55502 | -91.20424 | 17180 ft | 386 kts | 104° |
| 2026-05-07 14:15 | 34.55077 | -91.17191 | 16757 ft | 389 kts | 103° |
| 2026-05-07 14:16 | 34.54655 | -91.13951 | 16381 ft | 388 kts | 103° |
| 2026-05-07 14:16 | 34.54234 | -91.10725 | 16019 ft | 386 kts | 103° |
| 2026-05-07 14:16 | 34.53815 | -91.07520 | 15658 ft | 385 kts | 103° |
| 2026-05-07 14:16 | 34.53401 | -91.04363 | 15325 ft | 383 kts | 103° |
| 2026-05-07 14:17 | 34.52982 | -91.01186 | 14964 ft | 381 kts | 102° |
| 2026-05-07 14:17 | 34.52564 | -90.98021 | 14609 ft | 379 kts | 102° |
| 2026-05-07 14:17 | 34.52150 | -90.94890 | 14289 ft | 372 kts | 102° |
| 2026-05-07 14:17 | 34.51744 | -90.91825 | 13902 ft | 364 kts | 102° |
| 2026-05-07 14:18 | 34.51349 | -90.88838 | 13567 ft | 355 kts | 102° |
| 2026-05-07 14:18 | 34.50961 | -90.85919 | 13242 ft | 346 kts | 102° |
| 2026-05-07 14:18 | 34.50580 | -90.83076 | 12932 ft | 337 kts | 102° |
| 2026-05-07 14:18 | 34.50237 | -90.80336 | 12632 ft | 330 kts | 96° |
| 2026-05-07 14:19 | 34.50523 | -90.77685 | 12556 ft | 311 kts | 63° |
| 2026-05-07 14:19 | 34.51552 | -90.75466 | 12390 ft | 297 kts | 53° |
| 2026-05-07 14:19 | 34.52700 | -90.73402 | 12118 ft | 294 kts | 47° |
| 2026-05-07 14:19 | 34.53949 | -90.71432 | 11869 ft | 297 kts | 46° |
| 2026-05-07 14:20 | 34.55248 | -90.69418 | 11632 ft | 307 kts | 47° |
| 2026-05-07 14:20 | 34.56546 | -90.67380 | 11347 ft | 301 kts | 47° |
| 2026-05-07 14:20 | 34.57784 | -90.65404 | 11039 ft | 289 kts | 48° |
| 2026-05-07 14:20 | 34.58969 | -90.63498 | 10761 ft | 277 kts | 48° |
| 2026-05-07 14:21 | 34.60082 | -90.61697 | 10522 ft | 264 kts | 48° |
| 2026-05-07 14:21 | 34.61159 | -90.59951 | 10279 ft | 253 kts | 48° |
| 2026-05-07 14:21 | 34.62196 | -90.58271 | 10079 ft | 247 kts | 48° |
| 2026-05-07 14:21 | 34.63215 | -90.56609 | 9850 ft | 244 kts | 51° |
| 2026-05-07 14:22 | 34.64082 | -90.54847 | 9645 ft | 242 kts | 58° |
| 2026-05-07 14:22 | 34.64861 | -90.53052 | 9437 ft | 239 kts | 59° |
| 2026-05-07 14:22 | 34.65627 | -90.51267 | 9224 ft | 237 kts | 59° |
| 2026-05-07 14:22 | 34.66387 | -90.49504 | 9030 ft | 234 kts | 59° |
| 2026-05-07 14:23 | 34.67143 | -90.47763 | 8807 ft | 232 kts | 59° |
| 2026-05-07 14:23 | 34.67892 | -90.46044 | 8603 ft | 229 kts | 59° |
| 2026-05-07 14:23 | 34.68636 | -90.44343 | 8416 ft | 226 kts | 59° |
| 2026-05-07 14:23 | 34.69346 | -90.42721 | 8234 ft | 215 kts | 59° |
| 2026-05-07 14:24 | 34.70032 | -90.41155 | 8014 ft | 206 kts | 59° |
| 2026-05-07 14:24 | 34.70699 | -90.39638 | 7828 ft | 203 kts | 58° |
| 2026-05-07 14:24 | 34.71363 | -90.38129 | 7650 ft | 202 kts | 59° |
| 2026-05-07 14:24 | 34.72023 | -90.36629 | 7480 ft | 201 kts | 59° |
| 2026-05-07 14:25 | 34.72678 | -90.35138 | 7312 ft | 199 kts | 59° |
| 2026-05-07 14:25 | 34.73333 | -90.33654 | 7128 ft | 200 kts | 59° |
| 2026-05-07 14:25 | 34.73986 | -90.32169 | 6945 ft | 198 kts | 59° |
| 2026-05-07 14:25 | 34.74634 | -90.30696 | 6788 ft | 197 kts | 59° |
| 2026-05-07 14:26 | 34.75283 | -90.29224 | 6600 ft | 198 kts | 59° |
| 2026-05-07 14:26 | 34.75923 | -90.27773 | 6421 ft | 197 kts | 59° |
| 2026-05-07 14:26 | 34.76564 | -90.26311 | 6247 ft | 196 kts | 59° |
| 2026-05-07 14:26 | 34.77200 | -90.24859 | 6070 ft | 193 kts | 59° |
| 2026-05-07 14:27 | 34.77828 | -90.23427 | 5892 ft | 190 kts | 59° |
| 2026-05-07 14:27 | 34.78443 | -90.22019 | 5723 ft | 187 kts | 59° |
| 2026-05-07 14:27 | 34.79050 | -90.20637 | 5560 ft | 184 kts | 59° |
| 2026-05-07 14:27 | 34.79646 | -90.19279 | 5397 ft | 180 kts | 59° |
| 2026-05-07 14:28 | 34.80229 | -90.17943 | 5238 ft | 177 kts | 59° |
| 2026-05-07 14:28 | 34.80804 | -90.16630 | 5084 ft | 177 kts | 59° |
| 2026-05-07 14:28 | 34.81382 | -90.15320 | 4945 ft | 179 kts | 59° |
| 2026-05-07 14:28 | 34.81973 | -90.13972 | 4774 ft | 179 kts | 59° |
| 2026-05-07 14:29 | 34.82554 | -90.12645 | 4602 ft | 175 kts | 59° |
| 2026-05-07 14:29 | 34.83116 | -90.11356 | 4446 ft | 171 kts | 59° |
| 2026-05-07 14:29 | 34.83667 | -90.10093 | 4282 ft | 167 kts | 59° |
| 2026-05-07 14:29 | 34.84213 | -90.08844 | 4172 ft | 168 kts | 59° |
| 2026-05-07 14:30 | 34.84774 | -90.07565 | 4034 ft | 174 kts | 59° |
| 2026-05-07 14:30 | 34.85344 | -90.06262 | 3864 ft | 173 kts | 59° |
| 2026-05-07 14:30 | 34.85905 | -90.04980 | 3676 ft | 169 kts | 59° |
| 2026-05-07 14:30 | 34.86443 | -90.03746 | 3556 ft | 165 kts | 59° |
| 2026-05-07 14:31 | 34.86970 | -90.02533 | 3383 ft | 158 kts | 59° |
| 2026-05-07 14:31 | 34.87489 | -90.01347 | 3275 ft | 161 kts | 59° |
| 2026-05-07 14:31 | 34.88031 | -90.00122 | 3128 ft | 165 kts | 60° |
| 2026-05-07 14:31 | 34.88653 | -89.98986 | 2960 ft | 160 kts | 35° |
| 2026-05-07 14:32 | 34.89689 | -89.98591 | 2964 ft | 158 kts | 11° |
| 2026-05-07 14:32 | 34.90807 | -89.98459 | 2759 ft | 168 kts | 4° |
| 2026-05-07 14:32 | 34.92018 | -89.98474 | 2348 ft | 174 kts | 354° |
| 2026-05-07 14:32 | 34.93183 | -89.98714 | 2091 ft | 164 kts | 3° |
| 2026-05-07 14:33 | 34.94240 | -89.98416 | 1898 ft | 155 kts | 16° |
| 2026-05-07 14:33 | 34.95280 | -89.98422 | 1700 ft | 150 kts | 342° |
| 2026-05-07 14:33 | 34.96310 | -89.98808 | 1585 ft | 161 kts | 352° |
| 2026-05-07 14:33 | 34.97420 | -89.98858 | 1554 ft | 159 kts | 4° |
| 2026-05-07 14:34 | 34.98560 | -89.98728 | 1143 ft | 170 kts | 6° |
| 2026-05-07 14:34 | 34.99731 | -89.98635 | 823 ft | 166 kts | 2° |
| 2026-05-07 14:34 | 35.00896 | -89.98659 | 666 ft | 166 kts | 359° |
| 2026-05-07 14:34 | 35.01960 | -89.98690 | 475 ft | 148 kts | 0° |
| 2026-05-07 14:35 | 35.02943 | -89.98713 | 331 ft | 130 kts | 0° |
| 2026-05-07 14:35 | 35.03714 | -89.98723 | 329 ft | 82 kts | 360° |
| 2026-05-07 14:35 | 35.04080 | -89.98725 | 325 ft | 33 kts | 359° |
| 2026-05-07 14:35 | 35.04279 | -89.98730 | 325 ft | 28 kts | 359° |
| 2026-05-07 14:36 | 35.04445 | -89.98723 | 327 ft | 19 kts | 7° |
| 2026-05-07 14:36 | 35.04567 | -89.98683 | 328 ft | 18 kts | 23° |
| 2026-05-07 14:36 | 35.04671 | -89.98607 | 326 ft | 16 kts | 45° |
| 2026-05-07 14:36 | 35.04723 | -89.98518 | 326 ft | 14 kts | 13° |
| 2026-05-07 14:37 | 35.04827 | -89.98515 | 328 ft | 15 kts | 0° |
| 2026-05-07 14:37 | 35.05029 | -89.98513 | 328 ft | 14 kts | 0° |
| 2026-05-07 14:37 | 35.05125 | -89.98515 | 328 ft | 13 kts | 360° |
| 2026-05-07 14:38 | 35.05222 | -89.98513 | 329 ft | 15 kts | 1° |
| 2026-05-07 14:38 | 35.05335 | -89.98512 | 327 ft | 17 kts | 359° |
| 2026-05-07 14:38 | 35.05450 | -89.98512 | 325 ft | 17 kts | 0° |
| 2026-05-07 14:38 | 35.05568 | -89.98511 | 329 ft | 18 kts | 0° |
| 2026-05-07 14:39 | 35.05695 | -89.98510 | 326 ft | 18 kts | 0° |
| 2026-05-07 14:39 | 35.05818 | -89.98506 | 327 ft | 18 kts | 2° |
| 2026-05-07 14:39 | 35.05939 | -89.98511 | 326 ft | 17 kts | 354° |
| 2026-05-07 14:39 | 35.06023 | -89.98456 | 328 ft | 15 kts | 78° |
| 2026-05-07 14:40 | 35.06022 | -89.98321 | 326 ft | 17 kts | 91° |
| 2026-05-07 14:40 | 35.06019 | -89.98167 | 328 ft | 18 kts | 91° |
| 2026-05-07 14:40 | 35.06015 | -89.98017 | 328 ft | 17 kts | 92° |
| 2026-05-07 14:40 | 35.06009 | -89.97872 | 328 ft | 17 kts | 92° |
| 2026-05-07 14:41 | 35.05998 | -89.97733 | 330 ft | 16 kts | 101° |
| 2026-05-07 14:41 | 35.05970 | -89.97605 | 327 ft | 15 kts | 94° |
| 2026-05-07 14:41 | 35.06043 | -89.97542 | 327 ft | 14 kts | 1° |
| 2026-05-07 14:41 | 35.06139 | -89.97543 | 327 ft | 14 kts | 359° |
| 2026-05-07 14:42 | 35.06232 | -89.97544 | 326 ft | 13 kts | 359° |
| 2026-05-07 14:42 | 35.06317 | -89.97552 | 329 ft | 11 kts | 326° |
| 2026-05-07 14:42 | 35.06327 | -89.97616 | 328 ft | 0 kts | 270° |